sensor_id;sensor_type;location;lat;lon;timestamp;temperature;humidity
27224;DHT22;14965;50.660;13.226;2023-01-26T00:00:51;-0.30;99.90
27224;DHT22;14965;50.660;13.226;2023-01-26T00:03:17;-0.20;99.90
27224;DHT22;14965;50.660;13.226;2023-01-26T00:05:45;-0.30;99.90
27224;DHT22;14965;50.660;13.226;2023-01-26T00:08:11;-0.20;99.90
27224;DHT22;14965;50.660;13.226;2023-01-26T00:10:38;-0.20;99.90
27224;DHT22;14965;50.660;13.226;2023-01-26T00:13:05;-0.20;99.90
27224;DHT22;14965;50.660;13.226;2023-01-26T00:15:33;-0.20;99.90
27224;DHT22;14965;50.660;13.226;2023-01-26T00:17:59;-0.20;99.90
27224;DHT22;14965;50.660;13.226;2023-01-26T00:20:25;-0.10;99.90
27224;DHT22;14965;50.660;13.226;2023-01-26T00:22:53;-0.10;99.90
27224;DHT22;14965;50.660;13.226;2023-01-26T00:25:19;-0.10;99.90
27224;DHT22;14965;50.660;13.226;2023-01-26T00:27:46;-0.10;99.90
27224;DHT22;14965;50.660;13.226;2023-01-26T00:30:12;-0.10;99.90
27224;DHT22;14965;50.660;13.226;2023-01-26T00:32:38;-0.10;99.90
27224;DHT22;14965;50.660;13.226;2023-01-26T00:35:05;-0.10;99.90
27224;DHT22;14965;50.660;13.226;2023-01-26T00:37:31;-0.10;99.90
27224;DHT22;14965;50.660;13.226;2023-01-26T00:39:59;-0.10;99.90
27224;DHT22;14965;50.660;13.226;2023-01-26T00:42:24;-0.10;99.90
27224;DHT22;14965;50.660;13.226;2023-01-26T00:44:51;-0.10;99.90
27224;DHT22;14965;50.660;13.226;2023-01-26T00:47:17;-0.10;99.90
27224;DHT22;14965;50.660;13.226;2023-01-26T00:49:43;-0.20;99.90
27224;DHT22;14965;50.660;13.226;2023-01-26T00:52:10;-0.10;99.90
27224;DHT22;14965;50.660;13.226;2023-01-26T00:54:37;-0.10;99.90
27224;DHT22;14965;50.660;13.226;2023-01-26T00:57:04;-0.10;99.90
27224;DHT22;14965;50.660;13.226;2023-01-26T00:59:30;-0.10;99.90
27224;DHT22;14965;50.660;13.226;2023-01-26T01:01:56;0.00;99.90
27224;DHT22;14965;50.660;13.226;2023-01-26T01:04:23;-0.10;99.90
27224;DHT22;14965;50.660;13.226;2023-01-26T01:06:49;-0.10;99.90
27224;DHT22;14965;50.660;13.226;2023-01-26T01:09:15;-0.20;99.90
27224;DHT22;14965;50.660;13.226;2023-01-26T01:11:41;-0.30;99.90
27224;DHT22;14965;50.660;13.226;2023-01-26T01:14:08;-0.30;99.90
27224;DHT22;14965;50.660;13.226;2023-01-26T01:16:34;-0.30;99.90
27224;DHT22;14965;50.660;13.226;2023-01-26T01:19:00;-0.30;99.90
27224;DHT22;14965;50.660;13.226;2023-01-26T01:21:26;-0.40;99.90
27224;DHT22;14965;50.660;13.226;2023-01-26T01:23:52;-0.40;99.90
27224;DHT22;14965;50.660;13.226;2023-01-26T01:26:18;-0.30;99.90
27224;DHT22;14965;50.660;13.226;2023-01-26T01:28:44;-0.30;99.90
27224;DHT22;14965;50.660;13.226;2023-01-26T01:31:14;-0.30;99.90
27224;DHT22;14965;50.660;13.226;2023-01-26T01:33:41;-0.30;99.90
27224;DHT22;14965;50.660;13.226;2023-01-26T01:36:10;-0.30;99.90
27224;DHT22;14965;50.660;13.226;2023-01-26T01:38:37;-0.30;99.90
27224;DHT22;14965;50.660;13.226;2023-01-26T01:41:03;-0.30;99.90
27224;DHT22;14965;50.660;13.226;2023-01-26T01:43:29;-0.30;99.90
27224;DHT22;14965;50.660;13.226;2023-01-26T01:45:56;-0.20;99.90
27224;DHT22;14965;50.660;13.226;2023-01-26T01:48:30;-0.20;99.90
27224;DHT22;14965;50.660;13.226;2023-01-26T01:51:04;-0.20;99.90
27224;DHT22;14965;50.660;13.226;2023-01-26T01:53:38;-0.20;99.90
27224;DHT22;14965;50.660;13.226;2023-01-26T01:56:10;-0.20;99.90
27224;DHT22;14965;50.660;13.226;2023-01-26T01:58:40;-0.20;99.90
27224;DHT22;14965;50.660;13.226;2023-01-26T02:01:08;-0.20;99.90
27224;DHT22;14965;50.660;13.226;2023-01-26T02:03:36;-0.20;99.90
27224;DHT22;14965;50.660;13.226;2023-01-26T02:06:06;-0.30;99.90
27224;DHT22;14965;50.660;13.226;2023-01-26T02:08:37;-0.40;99.90
27224;DHT22;14965;50.660;13.226;2023-01-26T02:11:08;-0.40;99.90
27224;DHT22;14965;50.660;13.226;2023-01-26T02:13:37;-0.40;99.90
27224;DHT22;14965;50.660;13.226;2023-01-26T02:16:05;-0.40;99.90
27224;DHT22;14965;50.660;13.226;2023-01-26T02:18:31;-0.30;99.90
27224;DHT22;14965;50.660;13.226;2023-01-26T02:21:00;-0.40;99.90
27224;DHT22;14965;50.660;13.226;2023-01-26T02:23:35;-0.40;99.90
27224;DHT22;14965;50.660;13.226;2023-01-26T02:26:14;-0.40;99.90
27224;DHT22;14965;50.660;13.226;2023-01-26T02:28:43;-0.40;99.90
27224;DHT22;14965;50.660;13.226;2023-01-26T02:31:10;-0.40;99.90
27224;DHT22;14965;50.660;13.226;2023-01-26T02:33:37;-0.40;99.90
27224;DHT22;14965;50.660;13.226;2023-01-26T02:36:05;-0.40;99.90
27224;DHT22;14965;50.660;13.226;2023-01-26T02:38:38;-0.40;99.90
27224;DHT22;14965;50.660;13.226;2023-01-26T02:41:08;-0.30;99.90
27224;DHT22;14965;50.660;13.226;2023-01-26T02:43:37;-0.30;99.90
27224;DHT22;14965;50.660;13.226;2023-01-26T02:46:04;-0.30;99.90
27224;DHT22;14965;50.660;13.226;2023-01-26T02:48:30;-0.30;99.90
27224;DHT22;14965;50.660;13.226;2023-01-26T02:50:55;-0.30;99.90
27224;DHT22;14965;50.660;13.226;2023-01-26T02:53:21;-0.30;99.90
27224;DHT22;14965;50.660;13.226;2023-01-26T02:55:47;-0.30;99.90
27224;DHT22;14965;50.660;13.226;2023-01-26T02:58:13;-0.40;99.90
27224;DHT22;14965;50.660;13.226;2023-01-26T03:00:40;-0.40;99.90
27224;DHT22;14965;50.660;13.226;2023-01-26T03:03:12;-0.30;99.90
27224;DHT22;14965;50.660;13.226;2023-01-26T03:05:40;-0.30;99.90
27224;DHT22;14965;50.660;13.226;2023-01-26T03:08:06;-0.40;99.90
27224;DHT22;14965;50.660;13.226;2023-01-26T03:10:33;-0.40;99.90
27224;DHT22;14965;50.660;13.226;2023-01-26T03:12:59;-0.40;99.90
27224;DHT22;14965;50.660;13.226;2023-01-26T03:15:25;-0.30;99.90
27224;DHT22;14965;50.660;13.226;2023-01-26T03:18:00;-0.30;99.90
27224;DHT22;14965;50.660;13.226;2023-01-26T03:20:26;-0.40;99.90
27224;DHT22;14965;50.660;13.226;2023-01-26T03:22:52;-0.50;99.90
27224;DHT22;14965;50.660;13.226;2023-01-26T03:25:18;-0.50;99.90
27224;DHT22;14965;50.660;13.226;2023-01-26T03:27:45;-0.50;99.90
27224;DHT22;14965;50.660;13.226;2023-01-26T03:30:14;-0.50;99.90
27224;DHT22;14965;50.660;13.226;2023-01-26T03:32:42;-0.50;99.90
27224;DHT22;14965;50.660;13.226;2023-01-26T03:35:10;-0.50;99.90
27224;DHT22;14965;50.660;13.226;2023-01-26T03:37:36;-0.50;99.90
27224;DHT22;14965;50.660;13.226;2023-01-26T03:40:02;-0.50;99.90
27224;DHT22;14965;50.660;13.226;2023-01-26T03:42:28;-0.50;99.90
27224;DHT22;14965;50.660;13.226;2023-01-26T03:44:54;-0.50;99.90
27224;DHT22;14965;50.660;13.226;2023-01-26T03:47:20;-0.40;99.90
27224;DHT22;14965;50.660;13.226;2023-01-26T03:49:46;-0.40;99.90
27224;DHT22;14965;50.660;13.226;2023-01-26T03:52:13;-0.40;99.90
27224;DHT22;14965;50.660;13.226;2023-01-26T03:54:39;-0.40;99.90
27224;DHT22;14965;50.660;13.226;2023-01-26T03:57:05;-0.40;99.90
27224;DHT22;14965;50.660;13.226;2023-01-26T03:59:31;-0.30;99.90
27224;DHT22;14965;50.660;13.226;2023-01-26T04:01:56;-0.30;99.90
27224;DHT22;14965;50.660;13.226;2023-01-26T04:04:22;-0.30;99.90
27224;DHT22;14965;50.660;13.226;2023-01-26T04:06:49;-0.30;99.90
27224;DHT22;14965;50.660;13.226;2023-01-26T04:09:17;-0.30;99.90
27224;DHT22;14965;50.660;13.226;2023-01-26T04:11:43;-0.20;99.90
27224;DHT22;14965;50.660;13.226;2023-01-26T04:14:11;-0.30;99.90
27224;DHT22;14965;50.660;13.226;2023-01-26T04:16:37;-0.30;99.90
27224;DHT22;14965;50.660;13.226;2023-01-26T04:19:03;-0.20;99.90
27224;DHT22;14965;50.660;13.226;2023-01-26T04:21:28;-0.20;99.90
27224;DHT22;14965;50.660;13.226;2023-01-26T04:23:55;-0.20;99.90
27224;DHT22;14965;50.660;13.226;2023-01-26T04:26:24;-0.20;99.90
27224;DHT22;14965;50.660;13.226;2023-01-26T04:28:51;-0.20;99.90
27224;DHT22;14965;50.660;13.226;2023-01-26T04:31:16;-0.20;99.90
27224;DHT22;14965;50.660;13.226;2023-01-26T04:33:42;-0.30;99.90
27224;DHT22;14965;50.660;13.226;2023-01-26T04:36:09;-0.30;99.90
27224;DHT22;14965;50.660;13.226;2023-01-26T04:38:36;-0.30;99.90
27224;DHT22;14965;50.660;13.226;2023-01-26T04:41:01;-0.30;99.90
27224;DHT22;14965;50.660;13.226;2023-01-26T04:43:29;-0.30;99.90
27224;DHT22;14965;50.660;13.226;2023-01-26T04:45:59;-0.30;99.90
27224;DHT22;14965;50.660;13.226;2023-01-26T04:48:28;-0.40;99.90
27224;DHT22;14965;50.660;13.226;2023-01-26T04:50:55;-0.40;99.90
27224;DHT22;14965;50.660;13.226;2023-01-26T04:53:22;-0.50;99.90
27224;DHT22;14965;50.660;13.226;2023-01-26T04:55:48;-0.50;99.90
27224;DHT22;14965;50.660;13.226;2023-01-26T04:58:14;-0.50;99.90
27224;DHT22;14965;50.660;13.226;2023-01-26T05:00:42;-0.50;99.90
27224;DHT22;14965;50.660;13.226;2023-01-26T05:03:09;-0.50;99.90
27224;DHT22;14965;50.660;13.226;2023-01-26T05:05:35;-0.50;99.90
27224;DHT22;14965;50.660;13.226;2023-01-26T05:08:03;-0.50;99.90
27224;DHT22;14965;50.660;13.226;2023-01-26T05:10:29;-0.50;99.90
27224;DHT22;14965;50.660;13.226;2023-01-26T05:12:55;-0.50;99.90
27224;DHT22;14965;50.660;13.226;2023-01-26T05:15:22;-0.40;99.90
27224;DHT22;14965;50.660;13.226;2023-01-26T05:17:49;-0.40;99.90
27224;DHT22;14965;50.660;13.226;2023-01-26T05:20:15;-0.40;99.90
27224;DHT22;14965;50.660;13.226;2023-01-26T05:22:41;-0.40;99.90
27224;DHT22;14965;50.660;13.226;2023-01-26T05:25:08;-0.40;99.90
27224;DHT22;14965;50.660;13.226;2023-01-26T05:27:35;-0.40;99.90
27224;DHT22;14965;50.660;13.226;2023-01-26T05:30:01;-0.40;99.90
27224;DHT22;14965;50.660;13.226;2023-01-26T05:32:28;-0.40;99.90
27224;DHT22;14965;50.660;13.226;2023-01-26T05:34:57;-0.40;99.90
27224;DHT22;14965;50.660;13.226;2023-01-26T05:37:23;-0.40;99.90
27224;DHT22;14965;50.660;13.226;2023-01-26T05:39:50;-0.40;99.90
27224;DHT22;14965;50.660;13.226;2023-01-26T05:42:16;-0.40;99.90
27224;DHT22;14965;50.660;13.226;2023-01-26T05:44:41;-0.30;99.90
27224;DHT22;14965;50.660;13.226;2023-01-26T05:47:07;-0.30;99.90
27224;DHT22;14965;50.660;13.226;2023-01-26T05:49:33;-0.30;99.90
27224;DHT22;14965;50.660;13.226;2023-01-26T05:52:00;-0.40;99.90
27224;DHT22;14965;50.660;13.226;2023-01-26T05:54:26;-0.40;99.90
27224;DHT22;14965;50.660;13.226;2023-01-26T05:56:52;-0.40;99.90
27224;DHT22;14965;50.660;13.226;2023-01-26T05:59:18;-0.50;99.90
27224;DHT22;14965;50.660;13.226;2023-01-26T06:01:44;-0.50;99.90
27224;DHT22;14965;50.660;13.226;2023-01-26T06:04:09;-0.50;99.90
27224;DHT22;14965;50.660;13.226;2023-01-26T06:06:35;-0.50;99.90
27224;DHT22;14965;50.660;13.226;2023-01-26T06:09:03;-0.60;99.90
27224;DHT22;14965;50.660;13.226;2023-01-26T06:11:30;-0.60;99.90
27224;DHT22;14965;50.660;13.226;2023-01-26T06:13:57;-0.50;99.90
27224;DHT22;14965;50.660;13.226;2023-01-26T06:16:22;-0.50;99.90
27224;DHT22;14965;50.660;13.226;2023-01-26T06:18:48;-0.50;99.90
27224;DHT22;14965;50.660;13.226;2023-01-26T06:21:14;-0.50;99.90
27224;DHT22;14965;50.660;13.226;2023-01-26T06:23:43;-0.50;99.90
27224;DHT22;14965;50.660;13.226;2023-01-26T06:26:10;-0.50;99.90
27224;DHT22;14965;50.660;13.226;2023-01-26T06:28:36;-0.50;99.90
27224;DHT22;14965;50.660;13.226;2023-01-26T06:31:04;-0.60;99.90
27224;DHT22;14965;50.660;13.226;2023-01-26T06:33:33;-0.60;99.90
27224;DHT22;14965;50.660;13.226;2023-01-26T06:36:00;-0.50;99.90
27224;DHT22;14965;50.660;13.226;2023-01-26T06:38:26;-0.60;99.90
27224;DHT22;14965;50.660;13.226;2023-01-26T06:40:52;-0.60;99.90
27224;DHT22;14965;50.660;13.226;2023-01-26T06:43:19;-0.60;99.90
27224;DHT22;14965;50.660;13.226;2023-01-26T06:45:45;-0.60;99.90
27224;DHT22;14965;50.660;13.226;2023-01-26T06:48:11;-0.60;99.90
27224;DHT22;14965;50.660;13.226;2023-01-26T06:50:38;-0.70;99.90
27224;DHT22;14965;50.660;13.226;2023-01-26T06:53:24;-0.80;99.90
27224;DHT22;14965;50.660;13.226;2023-01-26T06:55:53;-0.80;99.90
27224;DHT22;14965;50.660;13.226;2023-01-26T06:58:20;-0.80;99.90
27224;DHT22;14965;50.660;13.226;2023-01-26T07:00:47;-0.90;99.90
27224;DHT22;14965;50.660;13.226;2023-01-26T07:03:13;-0.80;99.90
27224;DHT22;14965;50.660;13.226;2023-01-26T07:05:39;-0.90;99.90
27224;DHT22;14965;50.660;13.226;2023-01-26T07:08:05;-0.90;99.90
27224;DHT22;14965;50.660;13.226;2023-01-26T07:10:31;-0.80;99.90
27224;DHT22;14965;50.660;13.226;2023-01-26T07:12:57;-0.80;99.90
27224;DHT22;14965;50.660;13.226;2023-01-26T07:15:24;-0.90;99.90
27224;DHT22;14965;50.660;13.226;2023-01-26T07:17:50;-0.80;99.90
27224;DHT22;14965;50.660;13.226;2023-01-26T07:20:16;-0.80;99.90
27224;DHT22;14965;50.660;13.226;2023-01-26T07:22:42;-0.70;99.90
27224;DHT22;14965;50.660;13.226;2023-01-26T07:25:08;-0.70;99.90
27224;DHT22;14965;50.660;13.226;2023-01-26T07:27:34;-0.60;99.90
27224;DHT22;14965;50.660;13.226;2023-01-26T07:29:59;-0.60;99.90
27224;DHT22;14965;50.660;13.226;2023-01-26T07:32:27;-0.70;99.90
27224;DHT22;14965;50.660;13.226;2023-01-26T07:34:52;-0.70;99.90
27224;DHT22;14965;50.660;13.226;2023-01-26T07:37:18;-0.80;99.90
27224;DHT22;14965;50.660;13.226;2023-01-26T07:39:44;-0.80;99.90
27224;DHT22;14965;50.660;13.226;2023-01-26T07:42:10;-0.70;99.90
27224;DHT22;14965;50.660;13.226;2023-01-26T07:44:36;-0.70;99.90
27224;DHT22;14965;50.660;13.226;2023-01-26T07:47:01;-0.70;99.90
27224;DHT22;14965;50.660;13.226;2023-01-26T07:49:29;-0.70;99.90
27224;DHT22;14965;50.660;13.226;2023-01-26T07:51:55;-0.70;99.90
27224;DHT22;14965;50.660;13.226;2023-01-26T07:54:21;-0.70;99.90
27224;DHT22;14965;50.660;13.226;2023-01-26T07:56:50;-0.60;99.90
27224;DHT22;14965;50.660;13.226;2023-01-26T07:59:16;-0.60;99.90
27224;DHT22;14965;50.660;13.226;2023-01-26T08:01:42;-0.50;99.90
27224;DHT22;14965;50.660;13.226;2023-01-26T08:04:08;-0.60;99.90
27224;DHT22;14965;50.660;13.226;2023-01-26T08:06:35;-0.60;99.90
27224;DHT22;14965;50.660;13.226;2023-01-26T08:09:01;-0.60;99.90
27224;DHT22;14965;50.660;13.226;2023-01-26T08:11:27;-0.70;99.90
27224;DHT22;14965;50.660;13.226;2023-01-26T08:13:52;-0.70;99.90
27224;DHT22;14965;50.660;13.226;2023-01-26T08:16:19;-0.70;99.90
27224;DHT22;14965;50.660;13.226;2023-01-26T08:18:46;-0.70;99.90
27224;DHT22;14965;50.660;13.226;2023-01-26T08:21:17;-0.70;99.90
27224;DHT22;14965;50.660;13.226;2023-01-26T08:23:48;-0.70;99.90
27224;DHT22;14965;50.660;13.226;2023-01-26T08:26:14;-0.80;99.90
27224;DHT22;14965;50.660;13.226;2023-01-26T08:28:40;-0.70;99.90
27224;DHT22;14965;50.660;13.226;2023-01-26T08:31:09;-0.80;99.90
27224;DHT22;14965;50.660;13.226;2023-01-26T08:33:37;-0.80;99.90
27224;DHT22;14965;50.660;13.226;2023-01-26T08:36:06;-0.70;99.90
27224;DHT22;14965;50.660;13.226;2023-01-26T08:38:33;-0.70;99.90
27224;DHT22;14965;50.660;13.226;2023-01-26T08:41:01;-0.80;99.90
27224;DHT22;14965;50.660;13.226;2023-01-26T08:43:27;-0.70;99.90
27224;DHT22;14965;50.660;13.226;2023-01-26T08:45:54;-0.80;99.90
27224;DHT22;14965;50.660;13.226;2023-01-26T08:48:20;-0.80;99.90
27224;DHT22;14965;50.660;13.226;2023-01-26T08:50:46;-0.90;99.90
27224;DHT22;14965;50.660;13.226;2023-01-26T08:53:12;-0.90;99.90
27224;DHT22;14965;50.660;13.226;2023-01-26T08:55:38;-1.00;99.90
27224;DHT22;14965;50.660;13.226;2023-01-26T08:58:06;-1.00;99.90
27224;DHT22;14965;50.660;13.226;2023-01-26T09:00:32;-1.20;99.90
27224;DHT22;14965;50.660;13.226;2023-01-26T09:03:07;-1.20;99.90
27224;DHT22;14965;50.660;13.226;2023-01-26T09:05:36;-1.20;99.90
27224;DHT22;14965;50.660;13.226;2023-01-26T09:08:05;-1.20;99.90
27224;DHT22;14965;50.660;13.226;2023-01-26T09:10:33;-1.20;99.90
27224;DHT22;14965;50.660;13.226;2023-01-26T09:13:02;-1.20;99.90
27224;DHT22;14965;50.660;13.226;2023-01-26T09:49:19;-1.10;99.90
27224;DHT22;14965;50.660;13.226;2023-01-26T09:52:21;-1.10;99.90
27224;DHT22;14965;50.660;13.226;2023-01-26T09:55:32;-1.10;99.90
27224;DHT22;14965;50.660;13.226;2023-01-26T10:02:14;-1.00;99.90
27224;DHT22;14965;50.660;13.226;2023-01-26T10:05:38;-0.90;99.90
27224;DHT22;14965;50.660;13.226;2023-01-26T10:27:52;-0.90;99.90
27224;DHT22;14965;50.660;13.226;2023-01-26T10:30:35;-0.80;99.90
27224;DHT22;14965;50.660;13.226;2023-01-26T10:33:13;-1.00;99.90
27224;DHT22;14965;50.660;13.226;2023-01-26T10:35:46;-1.00;99.90
27224;DHT22;14965;50.660;13.226;2023-01-26T10:38:39;-1.00;99.90
27224;DHT22;14965;50.660;13.226;2023-01-26T10:41:37;-1.00;99.90
27224;DHT22;14965;50.660;13.226;2023-01-26T10:44:20;-0.90;99.90
27224;DHT22;14965;50.660;13.226;2023-01-26T10:47:02;-0.90;99.90
27224;DHT22;14965;50.660;13.226;2023-01-26T10:49:38;-1.00;99.90
27224;DHT22;14965;50.660;13.226;2023-01-26T10:52:06;-1.00;99.90
27224;DHT22;14965;50.660;13.226;2023-01-26T12:18:25;-0.90;99.90
27224;DHT22;14965;50.660;13.226;2023-01-26T12:37:39;-1.10;99.90
27224;DHT22;14965;50.660;13.226;2023-01-26T12:40:19;-1.10;99.90
27224;DHT22;14965;50.660;13.226;2023-01-26T12:42:56;-1.10;99.90
27224;DHT22;14965;50.660;13.226;2023-01-26T12:45:40;-1.10;99.90
27224;DHT22;14965;50.660;13.226;2023-01-26T12:48:13;-1.00;99.90
27224;DHT22;14965;50.660;13.226;2023-01-26T12:50:46;-1.00;99.90
27224;DHT22;14965;50.660;13.226;2023-01-26T12:53:21;-0.90;99.90
27224;DHT22;14965;50.660;13.226;2023-01-26T12:55:57;-0.90;99.90
27224;DHT22;14965;50.660;13.226;2023-01-26T12:58:34;-0.80;99.90
27224;DHT22;14965;50.660;13.226;2023-01-26T13:01:06;-0.80;99.90
27224;DHT22;14965;50.660;13.226;2023-01-26T13:03:37;-0.80;99.90
27224;DHT22;14965;50.660;13.226;2023-01-26T13:06:18;-0.90;99.90
27224;DHT22;14965;50.660;13.226;2023-01-26T13:09:01;-0.90;99.90
27224;DHT22;14965;50.660;13.226;2023-01-26T13:11:46;-1.00;99.90
27224;DHT22;14965;50.660;13.226;2023-01-26T13:14:32;-1.00;99.90
27224;DHT22;14965;50.660;13.226;2023-01-26T13:20:48;-0.90;99.90
27224;DHT22;14965;50.660;13.226;2023-01-26T13:23:45;-0.80;99.90
27224;DHT22;14965;50.660;13.226;2023-01-26T13:26:18;-0.80;99.90
27224;DHT22;14965;50.660;13.226;2023-01-26T13:29:28;-0.80;99.90
27224;DHT22;14965;50.660;13.226;2023-01-26T13:31:57;-0.80;99.90
27224;DHT22;14965;50.660;13.226;2023-01-26T13:34:27;-1.00;99.90
27224;DHT22;14965;50.660;13.226;2023-01-26T13:37:04;-1.10;99.90
27224;DHT22;14965;50.660;13.226;2023-01-26T13:39:37;-1.20;99.90
27224;DHT22;14965;50.660;13.226;2023-01-26T13:42:17;-1.10;99.90
27224;DHT22;14965;50.660;13.226;2023-01-26T13:44:51;-1.00;99.90
27224;DHT22;14965;50.660;13.226;2023-01-26T13:47:27;-1.00;99.90
27224;DHT22;14965;50.660;13.226;2023-01-26T13:50:00;-0.90;99.90
27224;DHT22;14965;50.660;13.226;2023-01-26T13:52:27;-0.90;99.90
27224;DHT22;14965;50.660;13.226;2023-01-26T13:54:54;-0.80;99.90
27224;DHT22;14965;50.660;13.226;2023-01-26T13:57:37;-0.90;99.90
27224;DHT22;14965;50.660;13.226;2023-01-26T14:00:25;-1.00;99.90
27224;DHT22;14965;50.660;13.226;2023-01-26T14:03:25;-1.00;99.90
27224;DHT22;14965;50.660;13.226;2023-01-26T14:06:40;-1.10;99.90
27224;DHT22;14965;50.660;13.226;2023-01-26T14:09:30;-1.20;99.90
27224;DHT22;14965;50.660;13.226;2023-01-26T14:12:27;-1.10;99.90
27224;DHT22;14965;50.660;13.226;2023-01-26T14:15:30;-1.20;99.90
27224;DHT22;14965;50.660;13.226;2023-01-26T14:18:21;-1.20;99.90
27224;DHT22;14965;50.660;13.226;2023-01-26T14:21:01;-1.20;99.90
27224;DHT22;14965;50.660;13.226;2023-01-26T14:23:38;-1.20;99.90
27224;DHT22;14965;50.660;13.226;2023-01-26T14:26:23;-1.10;99.90
27224;DHT22;14965;50.660;13.226;2023-01-26T14:29:17;-1.20;99.90
27224;DHT22;14965;50.660;13.226;2023-01-26T14:31:52;-1.10;99.90
27224;DHT22;14965;50.660;13.226;2023-01-26T14:34:22;-1.10;99.90
27224;DHT22;14965;50.660;13.226;2023-01-26T14:37:05;-1.20;99.90
27224;DHT22;14965;50.660;13.226;2023-01-26T14:39:32;-1.20;99.90
27224;DHT22;14965;50.660;13.226;2023-01-26T14:41:59;-1.10;99.90
27224;DHT22;14965;50.660;13.226;2023-01-26T14:44:27;-1.00;99.90
27224;DHT22;14965;50.660;13.226;2023-01-26T14:47:03;-1.00;99.90
27224;DHT22;14965;50.660;13.226;2023-01-26T14:49:41;-1.00;99.90
27224;DHT22;14965;50.660;13.226;2023-01-26T14:55:05;-1.00;99.90
27224;DHT22;14965;50.660;13.226;2023-01-26T14:57:42;-1.10;99.90
27224;DHT22;14965;50.660;13.226;2023-01-26T15:00:24;-1.10;99.90
27224;DHT22;14965;50.660;13.226;2023-01-26T15:02:57;-1.10;99.90
27224;DHT22;14965;50.660;13.226;2023-01-26T15:05:31;-1.00;99.90
27224;DHT22;14965;50.660;13.226;2023-01-26T15:08:16;-1.10;99.90
27224;DHT22;14965;50.660;13.226;2023-01-26T15:10:55;-1.20;99.90
27224;DHT22;14965;50.660;13.226;2023-01-26T15:13:28;-1.20;99.90
27224;DHT22;14965;50.660;13.226;2023-01-26T15:16:03;-1.20;99.90
27224;DHT22;14965;50.660;13.226;2023-01-26T15:18:32;-1.20;99.90
27224;DHT22;14965;50.660;13.226;2023-01-26T15:21:00;-1.20;99.90
27224;DHT22;14965;50.660;13.226;2023-01-26T15:23:39;-1.20;99.90
27224;DHT22;14965;50.660;13.226;2023-01-26T15:26:08;-1.20;99.90
27224;DHT22;14965;50.660;13.226;2023-01-26T15:28:37;-1.30;99.90
27224;DHT22;14965;50.660;13.226;2023-01-26T15:31:05;-1.30;99.90
27224;DHT22;14965;50.660;13.226;2023-01-26T15:33:44;-1.30;99.90
27224;DHT22;14965;50.660;13.226;2023-01-26T15:36:24;-1.40;99.90
27224;DHT22;14965;50.660;13.226;2023-01-26T15:38:57;-1.40;99.90
27224;DHT22;14965;50.660;13.226;2023-01-26T15:41:25;-1.40;99.90
27224;DHT22;14965;50.660;13.226;2023-01-26T15:43:51;-1.40;99.90
27224;DHT22;14965;50.660;13.226;2023-01-26T15:46:18;-1.40;99.90
27224;DHT22;14965;50.660;13.226;2023-01-26T15:48:44;-1.30;99.90
27224;DHT22;14965;50.660;13.226;2023-01-26T15:51:11;-1.20;99.90
27224;DHT22;14965;50.660;13.226;2023-01-26T15:53:37;-1.20;99.90
27224;DHT22;14965;50.660;13.226;2023-01-26T15:56:04;-1.20;99.90
27224;DHT22;14965;50.660;13.226;2023-01-26T15:58:30;-1.30;99.90
27224;DHT22;14965;50.660;13.226;2023-01-26T16:00:56;-1.30;99.90
27224;DHT22;14965;50.660;13.226;2023-01-26T16:03:24;-1.30;99.90
27224;DHT22;14965;50.660;13.226;2023-01-26T16:05:49;-1.30;99.90
27224;DHT22;14965;50.660;13.226;2023-01-26T16:08:17;-1.30;99.90
27224;DHT22;14965;50.660;13.226;2023-01-26T16:10:44;-1.30;99.90
27224;DHT22;14965;50.660;13.226;2023-01-26T16:13:12;-1.30;99.90
27224;DHT22;14965;50.660;13.226;2023-01-26T16:15:42;-1.30;99.90
27224;DHT22;14965;50.660;13.226;2023-01-26T16:18:09;-1.30;99.90
27224;DHT22;14965;50.660;13.226;2023-01-26T16:20:39;-1.30;99.90
27224;DHT22;14965;50.660;13.226;2023-01-26T16:23:14;-1.30;99.90
27224;DHT22;14965;50.660;13.226;2023-01-26T16:25:42;-1.40;99.90
27224;DHT22;14965;50.660;13.226;2023-01-26T16:28:08;-1.40;99.90
27224;DHT22;14965;50.660;13.226;2023-01-26T16:30:34;-1.50;99.90
27224;DHT22;14965;50.660;13.226;2023-01-26T16:33:00;-1.60;99.90
27224;DHT22;14965;50.660;13.226;2023-01-26T16:35:27;-1.70;99.90
27224;DHT22;14965;50.660;13.226;2023-01-26T16:37:55;-1.70;99.90
27224;DHT22;14965;50.660;13.226;2023-01-26T16:40:20;-1.70;99.90
27224;DHT22;14965;50.660;13.226;2023-01-26T16:42:48;-1.80;99.90
27224;DHT22;14965;50.660;13.226;2023-01-26T16:45:17;-1.80;99.90
27224;DHT22;14965;50.660;13.226;2023-01-26T16:47:44;-1.80;99.90
27224;DHT22;14965;50.660;13.226;2023-01-26T16:50:10;-1.80;99.90
27224;DHT22;14965;50.660;13.226;2023-01-26T16:52:36;-1.90;99.90
27224;DHT22;14965;50.660;13.226;2023-01-26T16:55:08;-1.90;99.90
27224;DHT22;14965;50.660;13.226;2023-01-26T16:57:35;-2.00;99.90
27224;DHT22;14965;50.660;13.226;2023-01-26T17:00:02;-2.00;99.90
27224;DHT22;14965;50.660;13.226;2023-01-26T17:02:33;-1.90;99.90
27224;DHT22;14965;50.660;13.226;2023-01-26T17:05:00;-2.00;99.90
27224;DHT22;14965;50.660;13.226;2023-01-26T17:07:25;-1.90;99.90
27224;DHT22;14965;50.660;13.226;2023-01-26T17:09:51;-1.90;99.90
27224;DHT22;14965;50.660;13.226;2023-01-26T17:12:18;-1.90;99.90
27224;DHT22;14965;50.660;13.226;2023-01-26T17:14:44;-2.00;99.90
27224;DHT22;14965;50.660;13.226;2023-01-26T17:17:10;-1.90;99.90
27224;DHT22;14965;50.660;13.226;2023-01-26T17:19:36;-1.80;99.90
27224;DHT22;14965;50.660;13.226;2023-01-26T17:22:02;-1.80;99.90
27224;DHT22;14965;50.660;13.226;2023-01-26T17:24:28;-1.80;99.90
27224;DHT22;14965;50.660;13.226;2023-01-26T17:26:54;-2.00;99.90
27224;DHT22;14965;50.660;13.226;2023-01-26T17:29:21;-2.00;99.90
27224;DHT22;14965;50.660;13.226;2023-01-26T17:31:47;-2.00;99.90
27224;DHT22;14965;50.660;13.226;2023-01-26T17:34:13;-2.10;99.90
27224;DHT22;14965;50.660;13.226;2023-01-26T17:36:38;-2.10;99.90
27224;DHT22;14965;50.660;13.226;2023-01-26T17:39:04;-2.10;99.90
27224;DHT22;14965;50.660;13.226;2023-01-26T17:41:30;-2.20;99.90
27224;DHT22;14965;50.660;13.226;2023-01-26T17:43:56;-2.20;99.90
27224;DHT22;14965;50.660;13.226;2023-01-26T17:46:23;-2.10;99.90
27224;DHT22;14965;50.660;13.226;2023-01-26T17:48:49;-2.10;99.90
27224;DHT22;14965;50.660;13.226;2023-01-26T17:51:16;-2.10;99.90
27224;DHT22;14965;50.660;13.226;2023-01-26T17:53:46;-2.10;99.90
27224;DHT22;14965;50.660;13.226;2023-01-26T17:56:15;-2.20;99.90
27224;DHT22;14965;50.660;13.226;2023-01-26T17:58:46;-2.20;99.90
27224;DHT22;14965;50.660;13.226;2023-01-26T18:01:12;-2.30;99.90
27224;DHT22;14965;50.660;13.226;2023-01-26T18:03:41;-2.30;99.90
27224;DHT22;14965;50.660;13.226;2023-01-26T18:06:07;-2.20;99.90
27224;DHT22;14965;50.660;13.226;2023-01-26T18:08:35;-2.20;99.90
27224;DHT22;14965;50.660;13.226;2023-01-26T18:11:03;-2.20;99.90
27224;DHT22;14965;50.660;13.226;2023-01-26T18:13:32;-2.30;99.90
27224;DHT22;14965;50.660;13.226;2023-01-26T18:15:59;-2.40;99.90